Time;durP1;ratioP1;P1;durP2;ratioP2;P2;SDS_P1;SDS_P2;PMS_P1;PMS_P2;Temp;Humidity;BMP_temperature;BMP_pressure;BME280_temperature;BME280_humidity;BME280_pressure;Samples;Min_cycle;Max_cycle;Signal;HPM_P1;HPM_P2
2021/12/25 00:02:20;;;;;;;18.17;12.18;;;;;;;;;;4972558;28;20050;-68
2021/12/25 00:04:47;;;;;;;15.18;10.98;;;;;;;;;;4972402;28;20058;-66
2021/12/25 00:07:14;;;;;;;15.80;11.38;;;;;;;;;;4972545;28;20105;-67
2021/12/25 00:09:41;;;;;;;15.95;11.10;;;;;;;;;;4972370;28;20063;-67
2021/12/25 00:12:08;;;;;;;19.55;12.95;;;;;;;;;;4971278;28;20097;-67
2021/12/25 00:14:34;;;;;;;63.92;31.20;;;;;;;;;;4970287;28;20051;-67
2021/12/25 00:17:01;;;;;;;23.20;15.52;;;;;;;;;;4956517;28;20055;-67
2021/12/25 00:19:28;;;;;;;19.80;12.73;;;;;;;;;;4971307;28;20098;-66
2021/12/25 00:21:54;;;;;;;15.80;11.07;;;;;;;;;;4956479;28;20491;-67
2021/12/25 00:24:21;;;;;;;16.73;11.88;;;;;;;;;;4956474;28;20106;-67
2021/12/25 00:26:56;;;;;;;15.73;11.27;;;;;;;;;;4956554;28;20090;-67
2021/12/25 00:34:44;;;;;;;15.52;11.13;;;;;;;;;;4956129;28;20051;-67
2021/12/25 00:37:10;;;;;;;13.27;10.68;;;;;;;;;;4956493;29;20058;-66
2021/12/25 00:39:37;;;;;;;16.88;10.60;;;;;;;;;;4956142;28;20470;-66
2021/12/25 00:42:05;;;;;;;14.80;9.95;;;;;;;;;;4970907;28;20055;-65
2021/12/25 00:44:32;;;;;;;17.85;10.52;;;;;;;;;;4955852;29;20122;-67
2021/12/25 00:46:59;;;;;;;11.88;9.20;;;;;;;;;;4956153;28;20051;-66
2021/12/25 00:49:26;;;;;;;12.68;9.80;;;;;;;;;;4958101;28;20410;-67
2021/12/25 00:51:53;;;;;;;15.25;10.40;;;;;;;;;;4956107;29;20470;-67
2021/12/25 00:54:22;;;;;;;15.98;10.27;;;;;;;;;;4955751;28;20053;-66
2021/12/25 00:56:49;;;;;;;15.60;9.57;;;;;;;;;;4956202;28;20047;-66
2021/12/25 00:59:16;;;;;;;14.98;10.20;;;;;;;;;;4955838;29;20051;-67
2021/12/25 01:01:42;;;;;;;14.63;10.05;;;;;;;;;;4955676;28;20043;-67
2021/12/25 01:04:09;;;;;;;14.52;9.32;;;;;;;;;;4957109;28;20051;-68
2021/12/25 01:06:36;;;;;;;14.10;8.77;;;;;;;;;;4955674;28;20058;-67
2021/12/25 01:09:03;;;;;;;12.57;8.38;;;;;;;;;;4955713;29;20558;-67
2021/12/25 01:11:31;;;;;;;14.57;9.55;;;;;;;;;;4955645;28;20106;-67
2021/12/25 01:14:08;;;;;;;17.25;10.50;;;;;;;;;;4955440;29;20395;-67
2021/12/25 01:33:05;;;;;;;16.75;10.48;;;;;;;;;;4974434;28;20050;-67
2021/12/25 01:40:59;;;;;;;15.45;11.95;;;;;;;;;;4974587;28;20054;-67
2021/12/25 01:48:56;;;;;;;19.83;12.77;;;;;;;;;;4955097;28;20114;-68
2021/12/25 01:51:23;;;;;;;16.88;11.80;;;;;;;;;;4954837;28;20130;-66
2021/12/25 01:53:49;;;;;;;19.70;12.18;;;;;;;;;;4957953;28;20113;-67
2021/12/25 01:56:16;;;;;;;16.17;12.48;;;;;;;;;;4974159;28;20050;-67
2021/12/25 01:58:43;;;;;;;18.48;12.93;;;;;;;;;;4955619;28;20051;-68
2021/12/25 02:01:10;;;;;;;17.58;12.18;;;;;;;;;;4954671;28;20105;-67
2021/12/25 02:03:38;;;;;;;14.30;11.45;;;;;;;;;;4954415;29;20102;-66
2021/12/25 02:06:08;;;;;;;17.02;12.10;;;;;;;;;;4954762;28;20079;-68
2021/12/25 02:08:35;;;;;;;18.52;13.75;;;;;;;;;;4954427;28;20078;-67
2021/12/25 02:11:03;;;;;;;17.95;12.40;;;;;;;;;;4954648;28;20512;-67
2021/12/25 02:13:35;;;;;;;15.02;12.23;;;;;;;;;;4954368;28;20574;-68
2021/12/25 02:16:06;;;;;;;17.90;13.30;;;;;;;;;;4954571;28;20047;-66
2021/12/25 02:18:56;;;;;;;17.30;12.57;;;;;;;;;;4954294;28;20047;-67
2021/12/25 02:21:22;;;;;;;17.35;11.93;;;;;;;;;;4954161;28;20443;-67
2021/12/25 02:23:49;;;;;;;20.15;13.10;;;;;;;;;;4954021;28;20055;-67
2021/12/25 02:26:20;;;;;;;20.35;13.65;;;;;;;;;;4954297;28;20569;-68
2021/12/25 02:28:47;;;;;;;21.40;13.05;;;;;;;;;;4954360;28;20054;-69
2021/12/25 02:31:15;;;;;;;20.58;13.40;;;;;;;;;;4954256;28;20487;-68
2021/12/25 02:33:42;;;;;;;18.25;12.27;;;;;;;;;;4957180;28;20890;-68
2021/12/25 02:36:10;;;;;;;17.23;12.63;;;;;;;;;;4972453;28;20102;-68
2021/12/25 02:38:37;;;;;;;18.25;13.32;;;;;;;;;;4972723;28;20117;-67
2021/12/25 02:41:04;;;;;;;17.92;12.45;;;;;;;;;;4973518;28;20105;-68
2021/12/25 02:43:31;;;;;;;20.95;13.90;;;;;;;;;;4973166;28;20422;-68
2021/12/25 02:46:26;;;;;;;17.90;12.63;;;;;;;;;;4973329;28;20117;-68
2021/12/25 02:48:56;;;;;;;20.35;12.48;;;;;;;;;;4962287;28;20078;-68
2021/12/25 02:51:23;;;;;;;18.92;13.90;;;;;;;;;;4953907;28;20106;-67
2021/12/25 02:53:49;;;;;;;24.92;15.02;;;;;;;;;;4953834;28;20486;-68
2021/12/25 02:56:16;;;;;;;27.38;16.75;;;;;;;;;;4953907;28;20051;-68
2021/12/25 02:58:43;;;;;;;27.02;16.98;;;;;;;;;;4953847;29;20114;-66
2021/12/25 03:01:13;;;;;;;23.05;15.65;;;;;;;;;;4954240;28;20055;-67
2021/12/25 03:03:40;;;;;;;20.48;14.27;;;;;;;;;;4953450;28;20054;-68
2021/12/25 03:06:08;;;;;;;20.30;13.48;;;;;;;;;;4953767;28;20515;-68
2021/12/25 03:08:35;;;;;;;23.52;12.65;;;;;;;;;;4953634;28;20051;-68
2021/12/25 03:11:05;;;;;;;19.50;12.05;;;;;;;;;;4953821;28;20051;-67
2021/12/25 03:16:17;;;;;;;19.75;12.15;;;;;;;;;;4953691;28;20110;-67
2021/12/25 03:18:48;;;;;;;20.02;12.73;;;;;;;;;;4953738;28;20126;-68
2021/12/25 03:21:19;;;;;;;19.00;12.02;;;;;;;;;;4953820;28;20257;-68
2021/12/25 03:23:52;;;;;;;18.23;12.00;;;;;;;;;;4953311;28;20055;-67
2021/12/25 03:26:19;;;;;;;17.77;11.73;;;;;;;;;;4953707;28;20078;-67
2021/12/25 03:28:49;;;;;;;19.63;11.55;;;;;;;;;;4953538;28;20471;-66
2021/12/25 03:31:18;;;;;;;18.23;11.57;;;;;;;;;;4953621;28;20032;-68
2021/12/25 03:33:47;;;;;;;16.15;10.68;;;;;;;;;;4953546;28;20044;-67
2021/12/25 03:36:14;;;;;;;14.70;10.43;;;;;;;;;;4953858;28;20051;-68
2021/12/25 03:38:41;;;;;;;17.00;11.90;;;;;;;;;;4953388;28;20059;-68
2021/12/25 03:41:08;;;;;;;17.20;11.65;;;;;;;;;;4953467;28;20503;-67
2021/12/25 03:43:38;;;;;;;14.70;10.95;;;;;;;;;;4953061;28;20047;-68
2021/12/25 03:46:06;;;;;;;16.42;11.75;;;;;;;;;;4953471;28;20051;-67
2021/12/25 03:48:58;;;;;;;18.17;11.57;;;;;;;;;;4969435;28;20137;-67
2021/12/25 03:59:41;;;;;;;20.02;11.98;;;;;;;;;;4988711;28;20502;-67
2021/12/25 04:02:17;;;;;;;23.13;12.77;;;;;;;;;;4976235;28;20094;-68
2021/12/25 04:04:47;;;;;;;22.10;11.43;;;;;;;;;;4976004;28;20050;-68
2021/12/25 04:07:35;;;;;;;18.27;12.07;;;;;;;;;;4976264;28;20055;-68
2021/12/25 04:10:03;;;;;;;22.80;13.40;;;;;;;;;;4976134;28;20054;-67
2021/12/25 04:12:30;;;;;;;17.17;11.10;;;;;;;;;;4975837;28;20094;-67
2021/12/25 04:14:56;;;;;;;23.02;12.68;;;;;;;;;;4976101;28;20321;-68
2021/12/25 04:17:23;;;;;;;17.52;12.73;;;;;;;;;;4975788;28;20054;-66
2021/12/25 04:19:50;;;;;;;19.58;12.32;;;;;;;;;;4975702;28;20138;-67
2021/12/25 04:22:24;;;;;;;37.45;10.23;;;;;;;;;;4975683;28;20486;-67
2021/12/25 04:24:51;;;;;;;22.92;10.18;;;;;;;;;;4975677;28;20050;-68
2021/12/25 04:27:18;;;;;;;18.38;10.45;;;;;;;;;;4974574;28;20109;-68
2021/12/25 05:04:45;;;;;;;18.98;9.85;;;;;;;;;;4955511;28;20426;-68
2021/12/25 05:07:12;;;;;;;14.40;8.82;;;;;;;;;;4955905;29;20119;-68
2021/12/25 05:09:39;;;;;;;12.43;8.32;;;;;;;;;;4955604;29;20109;-69
2021/12/25 05:12:07;;;;;;;15.73;9.27;;;;;;;;;;4955678;29;20110;-69
2021/12/25 05:14:34;;;;;;;13.40;8.02;;;;;;;;;;4955589;29;20183;-69
2021/12/25 05:17:00;;;;;;;14.00;8.30;;;;;;;;;;4955553;28;20055;-69
2021/12/25 05:19:27;;;;;;;13.90;8.30;;;;;;;;;;4955414;29;20422;-68
2021/12/25 05:21:53;;;;;;;11.32;7.43;;;;;;;;;;4954252;29;20570;-69
2021/12/25 05:24:20;;;;;;;11.73;7.47;;;;;;;;;;4955089;29;20047;-68
2021/12/25 05:26:46;;;;;;;12.05;7.93;;;;;;;;;;4955263;28;20055;-68
2021/12/25 05:29:22;;;;;;;13.65;8.00;;;;;;;;;;4955476;29;20491;-68
2021/12/25 05:31:49;;;;;;;12.90;8.13;;;;;;;;;;4955774;28;20062;-67
2021/12/25 05:34:16;;;;;;;15.20;8.25;;;;;;;;;;4954688;29;20094;-67
2021/12/25 05:36:42;;;;;;;12.75;8.10;;;;;;;;;;4955080;28;20051;-68
2021/12/25 05:39:12;;;;;;;10.88;7.18;;;;;;;;;;4955869;28;20502;-68
2021/12/25 05:41:39;;;;;;;12.65;7.20;;;;;;;;;;4955350;29;20495;-68
2021/12/25 05:44:05;;;;;;;10.02;6.68;;;;;;;;;;4955375;28;20396;-68
2021/12/25 05:46:37;;;;;;;9.65;7.25;;;;;;;;;;4955072;29;20079;-68
2021/12/25 05:49:03;;;;;;;11.98;6.88;;;;;;;;;;4966106;28;20138;-68
2021/12/25 05:51:30;;;;;;;9.35;7.15;;;;;;;;;;4974286;28;20047;-66
2021/12/25 05:53:57;;;;;;;9.68;6.03;;;;;;;;;;4974287;28;20047;-68
2021/12/25 05:56:23;;;;;;;11.75;7.38;;;;;;;;;;4974492;28;20107;-67
2021/12/25 05:58:50;;;;;;;9.32;6.30;;;;;;;;;;4974411;28;20055;-68
2021/12/25 06:01:17;;;;;;;9.00;6.18;;;;;;;;;;4976814;28;20129;-68
2021/12/25 06:03:44;;;;;;;8.27;5.43;;;;;;;;;;4973702;28;20138;-66
2021/12/25 06:06:10;;;;;;;8.20;5.95;;;;;;;;;;4974191;28;20050;-68
2021/12/25 06:08:37;;;;;;;7.97;5.38;;;;;;;;;;4973827;28;20050;-68
2021/12/25 06:11:04;;;;;;;8.48;6.25;;;;;;;;;;4973670;28;20078;-68
2021/12/25 06:13:38;;;;;;;8.13;5.35;;;;;;;;;;4973650;28;20042;-67
2021/12/25 06:16:05;;;;;;;10.80;5.80;;;;;;;;;;4974055;28;20054;-68
2021/12/25 06:18:32;;;;;;;8.68;5.45;;;;;;;;;;4971669;28;20066;-68
2021/12/25 06:20:59;;;;;;;9.30;5.20;;;;;;;;;;4973869;28;20058;-67
2021/12/25 06:23:26;;;;;;;9.90;5.80;;;;;;;;;;4973349;28;20073;-68
2021/12/25 06:25:53;;;;;;;10.35;5.93;;;;;;;;;;4973564;28;20082;-67
2021/12/25 06:28:19;;;;;;;8.93;6.25;;;;;;;;;;4973763;28;20098;-68
2021/12/25 06:30:47;;;;;;;12.80;6.20;;;;;;;;;;4975689;28;20058;-67
2021/12/25 06:33:14;;;;;;;10.95;6.30;;;;;;;;;;4993591;28;20047;-67
2021/12/25 06:35:41;;;;;;;8.90;5.85;;;;;;;;;;4995963;28;20082;-65
2021/12/25 06:38:07;;;;;;;12.48;6.70;;;;;;;;;;4996250;28;20074;-67
2021/12/25 06:40:34;;;;;;;8.63;5.82;;;;;;;;;;4995995;28;20078;-67
2021/12/25 06:43:01;;;;;;;11.20;6.78;;;;;;;;;;4996424;28;20055;-67
2021/12/25 06:45:29;;;;;;;10.02;6.20;;;;;;;;;;4995921;28;20078;-66
2021/12/25 06:47:55;;;;;;;11.90;6.88;;;;;;;;;;4996468;28;20090;-67
2021/12/25 06:50:23;;;;;;;14.10;6.65;;;;;;;;;;4995854;28;20058;-67
2021/12/25 06:52:49;;;;;;;12.82;7.07;;;;;;;;;;4993627;28;20114;-66
2021/12/25 06:55:16;;;;;;;17.63;7.50;;;;;;;;;;4992850;28;20054;-66
2021/12/25 06:57:48;;;;;;;11.20;7.00;;;;;;;;;;4995616;28;20046;-65
2021/12/25 07:00:15;;;;;;;13.00;7.05;;;;;;;;;;4995239;28;20031;-67
2021/12/25 07:02:42;;;;;;;11.32;7.15;;;;;;;;;;4994329;28;20109;-67
2021/12/25 07:05:09;;;;;;;12.23;6.88;;;;;;;;;;4995216;28;20041;-66
2021/12/25 07:07:35;;;;;;;14.50;8.18;;;;;;;;;;4995447;28;20054;-67
2021/12/25 07:10:03;;;;;;;13.00;7.97;;;;;;;;;;4994553;28;20077;-67
2021/12/25 07:12:32;;;;;;;12.70;8.32;;;;;;;;;;4992252;28;20054;-64
2021/12/25 07:14:58;;;;;;;16.58;8.02;;;;;;;;;;4992385;28;20055;-67
2021/12/25 07:17:25;;;;;;;14.32;8.23;;;;;;;;;;4993077;28;20050;-67
2021/12/25 07:19:51;;;;;;;13.82;8.23;;;;;;;;;;4991815;28;20046;-67
2021/12/25 07:22:18;;;;;;;14.65;9.15;;;;;;;;;;4993028;28;20094;-66
2021/12/25 07:24:44;;;;;;;11.48;7.90;;;;;;;;;;4995812;28;20078;-68
2021/12/25 07:27:11;;;;;;;14.05;8.45;;;;;;;;;;4982919;28;20494;-68
2021/12/25 07:29:38;;;;;;;20.10;12.13;;;;;;;;;;4976857;28;20121;-68
2021/12/25 07:32:04;;;;;;;18.42;11.55;;;;;;;;;;4976947;28;20046;-68
2021/12/25 07:34:32;;;;;;;14.95;9.45;;;;;;;;;;4976490;28;20101;-68
2021/12/25 07:37:00;;;;;;;16.65;9.90;;;;;;;;;;4976737;28;20121;-66
2021/12/25 07:39:27;;;;;;;16.58;9.73;;;;;;;;;;4976478;28;20054;-68
2021/12/25 07:41:53;;;;;;;14.50;9.70;;;;;;;;;;4977242;28;20093;-67
2021/12/25 07:44:20;;;;;;;20.80;11.05;;;;;;;;;;4976313;28;20105;-68
2021/12/25 07:46:47;;;;;;;21.27;11.60;;;;;;;;;;4976506;28;20082;-66
2021/12/25 07:49:19;;;;;;;16.88;10.43;;;;;;;;;;4976421;28;20561;-68
2021/12/25 07:51:47;;;;;;;17.85;10.70;;;;;;;;;;4976707;28;20566;-66
2021/12/25 07:54:13;;;;;;;19.63;11.32;;;;;;;;;;4976587;28;20489;-68
2021/12/25 07:56:40;;;;;;;17.83;11.00;;;;;;;;;;4984009;28;20054;-68
2021/12/25 07:59:07;;;;;;;20.90;11.50;;;;;;;;;;4992755;28;20117;-67
2021/12/25 08:01:35;;;;;;;15.73;10.77;;;;;;;;;;4987305;28;20105;-66
2021/12/25 08:04:03;;;;;;;18.90;10.07;;;;;;;;;;4991347;28;20043;-66
2021/12/25 08:06:30;;;;;;;22.63;14.85;;;;;;;;;;4997857;28;20058;-65
2021/12/25 08:09:00;;;;;;;26.77;14.50;;;;;;;;;;4997144;28;20230;-66
2021/12/25 08:11:27;;;;;;;36.65;16.48;;;;;;;;;;4992995;28;20051;-67
2021/12/25 08:13:54;;;;;;;29.77;14.75;;;;;;;;;;4975840;28;20066;-68
2021/12/25 08:16:21;;;;;;;24.08;12.23;;;;;;;;;;4976108;28;20050;-67
2021/12/25 08:18:47;;;;;;;15.35;8.75;;;;;;;;;;4976019;28;20046;-66
2021/12/25 08:21:14;;;;;;;17.08;8.02;;;;;;;;;;4976145;28;20093;-66
2021/12/25 08:23:41;;;;;;;14.98;8.48;;;;;;;;;;4975456;28;20483;-67
2021/12/25 08:26:08;;;;;;;13.50;8.88;;;;;;;;;;4976021;28;20050;-67
2021/12/25 08:28:35;;;;;;;16.52;9.82;;;;;;;;;;4975622;28;20105;-68
2021/12/25 08:31:01;;;;;;;13.88;9.18;;;;;;;;;;4975728;28;20046;-68
2021/12/25 08:33:28;;;;;;;13.32;8.13;;;;;;;;;;4975593;28;20179;-67
2021/12/25 08:35:55;;;;;;;9.73;7.22;;;;;;;;;;4975665;28;20051;-67
2021/12/25 08:38:21;;;;;;;10.75;6.32;;;;;;;;;;4975582;28;20051;-68
2021/12/25 08:40:48;;;;;;;10.60;6.60;;;;;;;;;;4975700;28;20055;-67
2021/12/25 08:43:16;;;;;;;9.65;6.28;;;;;;;;;;4975466;28;20043;-67
2021/12/25 08:45:46;;;;;;;7.57;5.78;;;;;;;;;;4975429;28;20054;-67
2021/12/25 08:48:24;;;;;;;9.70;5.95;;;;;;;;;;4975497;28;20059;-67
2021/12/25 08:50:53;;;;;;;8.98;6.57;;;;;;;;;;4975546;28;20058;-67
2021/12/25 08:53:21;;;;;;;9.10;6.32;;;;;;;;;;4975027;28;20050;-68
2021/12/25 08:55:49;;;;;;;7.80;5.30;;;;;;;;;;4976118;28;20117;-68
2021/12/25 08:58:16;;;;;;;8.00;5.07;;;;;;;;;;4975951;28;20055;-66
2021/12/25 09:00:43;;;;;;;6.35;4.50;;;;;;;;;;4976017;28;20055;-67
2021/12/25 09:03:10;;;;;;;5.53;4.20;;;;;;;;;;4975699;28;20074;-66
2021/12/25 09:05:37;;;;;;;5.20;4.57;;;;;;;;;;4975691;28;20141;-65
2021/12/25 09:08:05;;;;;;;5.45;4.20;;;;;;;;;;4975120;28;20058;-66
2021/12/25 09:10:31;;;;;;;5.72;4.32;;;;;;;;;;4975224;28;20051;-66
2021/12/25 09:12:58;;;;;;;5.80;4.53;;;;;;;;;;4975011;28;20047;-66
2021/12/25 09:15:25;;;;;;;6.85;4.93;;;;;;;;;;4974820;28;20395;-66
2021/12/25 09:17:52;;;;;;;7.03;5.35;;;;;;;;;;4974916;28;20061;-64
2021/12/25 09:20:20;;;;;;;11.27;6.68;;;;;;;;;;4973616;28;20047;-67
2021/12/25 09:22:49;;;;;;;14.23;8.90;;;;;;;;;;4974698;28;20051;-66
2021/12/25 09:25:15;;;;;;;11.50;7.55;;;;;;;;;;4974632;28;20051;-65
2021/12/25 09:27:42;;;;;;;9.60;7.10;;;;;;;;;;4974619;28;20051;-65
2021/12/25 09:30:10;;;;;;;12.30;7.20;;;;;;;;;;4974758;28;20113;-66
2021/12/25 09:32:37;;;;;;;10.00;6.63;;;;;;;;;;4974409;28;20469;-65
2021/12/25 09:35:04;;;;;;;8.32;5.53;;;;;;;;;;4974386;28;20051;-66
2021/12/25 09:37:31;;;;;;;7.95;4.95;;;;;;;;;;4973540;28;20074;-67
2021/12/25 09:39:57;;;;;;;5.90;4.53;;;;;;;;;;4974720;28;20113;-69
2021/12/25 09:42:25;;;;;;;5.80;4.35;;;;;;;;;;4974785;28;20055;-65
2021/12/25 09:44:53;;;;;;;5.45;4.32;;;;;;;;;;4974983;28;20043;-65
2021/12/25 09:47:20;;;;;;;6.47;5.25;;;;;;;;;;4962571;28;20062;-65
2021/12/25 09:49:47;;;;;;;8.43;6.30;;;;;;;;;;4957605;28;20094;-64
2021/12/25 09:52:20;;;;;;;10.75;6.32;;;;;;;;;;4965769;28;20046;-67
2021/12/25 09:54:48;;;;;;;8.60;5.55;;;;;;;;;;4958591;28;20155;-66
2021/12/25 09:57:14;;;;;;;8.63;5.90;;;;;;;;;;4960607;28;20097;-65
2021/12/25 09:59:44;;;;;;;7.00;4.70;;;;;;;;;;4958526;28;20585;-66
2021/12/25 10:02:13;;;;;;;7.50;6.00;;;;;;;;;;4969264;28;20057;-65
2021/12/25 10:04:43;;;;;;;8.52;7.07;;;;;;;;;;4960226;28;20039;-65
2021/12/25 10:07:23;;;;;;;8.38;7.38;;;;;;;;;;4958308;28;20058;-65
2021/12/25 10:09:59;;;;;;;8.57;6.03;;;;;;;;;;4957372;28;20073;-66
2021/12/25 10:12:40;;;;;;;7.00;4.95;;;;;;;;;;4961406;28;20472;-66
2021/12/25 10:15:15;;;;;;;6.95;4.88;;;;;;;;;;4964708;28;20050;-65
2021/12/25 10:17:45;;;;;;;6.55;4.60;;;;;;;;;;4965213;28;20105;-65
2021/12/25 10:20:26;;;;;;;7.88;4.95;;;;;;;;;;4961616;28;20055;-65
2021/12/25 10:23:14;;;;;;;6.40;4.05;;;;;;;;;;4958422;28;20097;-65
2021/12/25 10:25:51;;;;;;;6.60;4.30;;;;;;;;;;4956636;28;20054;-64
2021/12/25 10:28:21;;;;;;;8.32;3.85;;;;;;;;;;4956886;28;20523;-64
2021/12/25 10:30:51;;;;;;;4.55;2.97;;;;;;;;;;4961541;28;20107;-64
2021/12/25 10:33:36;;;;;;;11.68;4.32;;;;;;;;;;4957301;28;20470;-65
2021/12/25 10:36:09;;;;;;;6.15;3.33;;;;;;;;;;4960708;28;20122;-65
2021/12/25 10:38:37;;;;;;;4.47;3.10;;;;;;;;;;4960199;28;20133;-64
2021/12/25 10:41:19;;;;;;;3.38;2.42;;;;;;;;;;4956916;28;20266;-64
2021/12/25 10:43:47;;;;;;;3.63;2.50;;;;;;;;;;4960719;28;20048;-65
2021/12/25 10:46:15;;;;;;;3.58;2.50;;;;;;;;;;4961650;28;20151;-64
2021/12/25 10:48:42;;;;;;;4.70;2.45;;;;;;;;;;4959725;28;20142;-65
2021/12/25 10:51:26;;;;;;;5.90;3.00;;;;;;;;;;4958896;28;20568;-65
2021/12/25 10:53:54;;;;;;;8.60;4.25;;;;;;;;;;4958080;28;20437;-65
2021/12/25 10:56:21;;;;;;;8.68;4.07;;;;;;;;;;4956737;28;20054;-64
2021/12/25 10:58:47;;;;;;;6.03;2.65;;;;;;;;;;4960212;28;20051;-65
2021/12/25 11:01:15;;;;;;;6.75;3.35;;;;;;;;;;4956739;28;20058;-65
2021/12/25 11:03:44;;;;;;;7.68;4.05;;;;;;;;;;4960401;28;20560;-65
2021/12/25 11:06:16;;;;;;;5.10;3.20;;;;;;;;;;4957564;28;20058;-66
2021/12/25 11:08:43;;;;;;;6.13;3.72;;;;;;;;;;4957212;28;20051;-66
2021/12/25 11:11:17;;;;;;;4.18;2.90;;;;;;;;;;4957411;28;20051;-65
2021/12/25 11:13:52;;;;;;;9.88;5.05;;;;;;;;;;4956821;28;20122;-65
2021/12/25 11:16:28;;;;;;;9.80;4.90;;;;;;;;;;4958406;28;20112;-65
2021/12/25 11:19:11;;;;;;;10.63;6.10;;;;;;;;;;4963836;28;20388;-65
2021/12/25 11:21:44;;;;;;;8.20;4.80;;;;;;;;;;4965819;28;20086;-64
2021/12/25 11:24:15;;;;;;;7.00;4.82;;;;;;;;;;4966666;28;20291;-64
2021/12/25 11:26:43;;;;;;;5.45;4.30;;;;;;;;;;4965946;28;20106;-65
2021/12/25 11:29:12;;;;;;;4.78;3.83;;;;;;;;;;4965673;28;20056;-65
2021/12/25 11:31:41;;;;;;;5.07;3.03;;;;;;;;;;4958342;28;20057;-67
2021/12/25 11:34:08;;;;;;;4.78;2.67;;;;;;;;;;4956098;28;20051;-66
2021/12/25 11:36:45;;;;;;;4.18;2.60;;;;;;;;;;4958742;28;20055;-66
2021/12/25 11:39:12;;;;;;;3.35;2.38;;;;;;;;;;4956923;28;20055;-65
2021/12/25 11:41:39;;;;;;;4.78;2.38;;;;;;;;;;4959322;28;20067;-64
2021/12/25 11:44:30;;;;;;;2.38;1.90;;;;;;;;;;4962723;28;20360;-66
2021/12/25 11:46:57;;;;;;;3.38;2.15;;;;;;;;;;4972096;28;20110;-65
2021/12/25 11:49:23;;;;;;;4.75;2.08;;;;;;;;;;4961060;28;20047;-66
2021/12/25 11:51:51;;;;;;;3.42;2.72;;;;;;;;;;4963342;28;20047;-68
2021/12/25 11:59:46;;;;;;;3.35;2.35;;;;;;;;;;4958506;28;20055;-65
2021/12/25 12:02:43;;;;;;;2.67;1.80;;;;;;;;;;4956476;28;20122;-69
2021/12/25 12:05:25;;;;;;;2.95;1.98;;;;;;;;;;4956631;28;20406;-67
2021/12/25 12:08:09;;;;;;;2.47;1.90;;;;;;;;;;4959730;28;20043;-67
2021/12/25 12:10:55;;;;;;;4.40;2.30;;;;;;;;;;4958876;28;20042;-67
2021/12/25 12:13:29;;;;;;;2.22;1.95;;;;;;;;;;4964267;28;20058;-65
2021/12/25 12:16:01;;;;;;;4.03;2.08;;;;;;;;;;4960601;28;20055;-66
2021/12/25 12:18:29;;;;;;;3.20;2.30;;;;;;;;;;4960446;28;20055;-68
2021/12/25 12:21:32;;;;;;;4.88;2.42;;;;;;;;;;4961976;28;20074;-69
2021/12/25 12:26:53;;;;;;;5.28;2.55;;;;;;;;;;4965463;28;20059;-66
2021/12/25 12:29:38;;;;;;;5.20;2.78;;;;;;;;;;4966215;28;20102;-68
2021/12/25 12:32:26;;;;;;;4.90;2.65;;;;;;;;;;4962906;28;20482;-66
2021/12/25 12:34:53;;;;;;;4.03;3.45;;;;;;;;;;4966873;28;20617;-66
2021/12/25 12:37:20;;;;;;;4.20;3.42;;;;;;;;;;4975699;28;20379;-66
2021/12/25 12:39:53;;;;;;;4.13;3.17;;;;;;;;;;4959672;28;20102;-66
2021/12/25 12:42:20;;;;;;;;;;;;;;;;;;4964241;28;20051;-70
2021/12/25 12:45:15;;;;;;;4.32;3.63;;;;;;;;;;4960335;28;20024;-68
2021/12/25 12:48:01;;;;;;;7.13;3.63;;;;;;;;;;4959714;28;20050;-67
2021/12/25 12:50:32;;;;;;;7.43;4.43;;;;;;;;;;4974772;28;20055;-66
2021/12/25 12:53:00;;;;;;;6.82;4.03;;;;;;;;;;4968784;28;20051;-67
2021/12/25 12:55:29;;;;;;;8.75;5.18;;;;;;;;;;4962416;28;20043;-67
2021/12/25 12:58:17;;;;;;;6.32;4.60;;;;;;;;;;4961223;28;20047;-67
2021/12/25 13:01:21;;;;;;;8.70;4.35;;;;;;;;;;4963353;28;20688;-67
2021/12/25 13:03:55;;;;;;;6.68;4.93;;;;;;;;;;4967831;28;20047;-68
2021/12/25 13:06:22;;;;;;;6.13;4.68;;;;;;;;;;4961046;28;20047;-67
2021/12/25 13:08:49;;;;;;;5.25;4.30;;;;;;;;;;4971293;28;20469;-68
2021/12/25 13:11:25;;;;;;;8.27;4.15;;;;;;;;;;4961320;28;20051;-69
2021/12/25 13:13:56;;;;;;;4.78;4.00;;;;;;;;;;4959187;28;20058;-68
2021/12/25 13:16:27;;;;;;;7.15;4.70;;;;;;;;;;4958770;28;20054;-69
2021/12/25 13:18:55;;;;;;;5.70;4.18;;;;;;;;;;4960182;28;20051;-67
2021/12/25 13:21:25;;;;;;;7.00;4.80;;;;;;;;;;4959337;28;20066;-68
2021/12/25 13:23:56;;;;;;;7.20;4.60;;;;;;;;;;4963926;28;20114;-69
2021/12/25 13:26:33;;;;;;;7.05;5.28;;;;;;;;;;4961480;28;20547;-68
2021/12/25 13:29:08;;;;;;;6.15;5.10;;;;;;;;;;4978296;28;20081;-69
2021/12/25 13:31:37;;;;;;;8.85;5.95;;;;;;;;;;4974686;28;20051;-66
2021/12/25 13:34:11;;;;;;;6.00;4.53;;;;;;;;;;4974073;28;20062;-68
2021/12/25 13:36:40;;;;;;;7.80;4.50;;;;;;;;;;4980348;28;20058;-66
2021/12/25 13:39:16;;;;;;;10.05;5.07;;;;;;;;;;4977240;28;20055;-67
2021/12/25 13:41:47;;;;;;;7.53;5.13;;;;;;;;;;4975292;28;20079;-70
2021/12/25 13:44:14;;;;;;;7.18;5.05;;;;;;;;;;4980370;28;20043;-68
2021/12/25 13:46:43;;;;;;;8.70;5.45;;;;;;;;;;4972286;28;20050;-67
2021/12/25 13:49:31;;;;;;;8.57;5.93;;;;;;;;;;4982710;28;20073;-68
2021/12/25 13:52:01;;;;;;;8.77;5.38;;;;;;;;;;4985196;28;20055;-66
2021/12/25 13:54:27;;;;;;;9.00;5.90;;;;;;;;;;4979830;28;20102;-67
2021/12/25 13:56:55;;;;;;;9.00;6.03;;;;;;;;;;4978909;28;20074;-68
2021/12/25 13:59:22;;;;;;;7.22;5.00;;;;;;;;;;4968566;28;20051;-68
2021/12/25 14:02:07;;;;;;;10.07;5.97;;;;;;;;;;4967953;28;20070;-68
2021/12/25 14:04:35;;;;;;;9.38;6.50;;;;;;;;;;4966768;28;20524;-68
2021/12/25 14:07:02;;;;;;;7.03;6.07;;;;;;;;;;4962605;28;20047;-68
2021/12/25 14:09:29;;;;;;;10.68;7.90;;;;;;;;;;4966263;28;20047;-68
2021/12/25 14:11:57;;;;;;;10.73;7.97;;;;;;;;;;4961287;28;20550;-69
2021/12/25 14:14:25;;;;;;;11.60;7.63;;;;;;;;;;4957868;28;20058;-68
2021/12/25 14:16:52;;;;;;;13.68;8.70;;;;;;;;;;4973326;28;20122;-68
2021/12/25 14:19:28;;;;;;;12.60;7.77;;;;;;;;;;4959282;28;20590;-68
2021/12/25 14:21:57;;;;;;;10.27;8.60;;;;;;;;;;5004435;23;20310;-69
2021/12/25 14:25:13;;;;;;;12.30;9.10;;;;;;;;;;4978129;28;20105;-70
2021/12/25 14:27:40;;;;;;;14.10;10.00;;;;;;;;;;4981141;28;20402;-69
2021/12/25 14:30:12;;;;;;;14.27;9.50;;;;;;;;;;4978278;28;20054;-68
2021/12/25 14:32:48;;;;;;;13.98;9.85;;;;;;;;;;4962736;28;20051;-69
2021/12/25 14:35:17;;;;;;;12.23;9.20;;;;;;;;;;4960302;28;20753;-69
2021/12/25 14:37:44;;;;;;;11.55;8.43;;;;;;;;;;4959999;28;20556;-69
2021/12/25 14:40:19;;;;;;;12.98;8.57;;;;;;;;;;4960953;28;20398;-70
2021/12/25 14:42:53;;;;;;;14.00;9.20;;;;;;;;;;4959402;28;20059;-69
2021/12/25 14:45:21;;;;;;;14.45;9.60;;;;;;;;;;4961424;28;20144;-70
2021/12/25 14:51:39;;;;;;;10.93;9.07;;;;;;;;;;4959348;28;20074;-71
2021/12/25 14:54:06;;;;;;;12.57;9.18;;;;;;;;;;4958738;28;20050;-69
2021/12/25 14:56:35;;;;;;;12.52;9.55;;;;;;;;;;4959871;28;20050;-70
2021/12/25 14:59:27;;;;;;;9.98;8.13;;;;;;;;;;4959832;28;20081;-70
2021/12/25 15:01:56;;;;;;;13.35;9.48;;;;;;;;;;4961689;28;20108;-70
2021/12/25 15:04:28;;;;;;;11.25;9.68;;;;;;;;;;4960715;28;20110;-69
2021/12/25 15:06:56;;;;;;;10.77;8.27;;;;;;;;;;4958849;28;20485;-69
2021/12/25 15:13:13;;;;;;;13.80;8.88;;;;;;;;;;4959973;28;20045;-70
2021/12/25 15:15:53;;;;;;;11.57;8.55;;;;;;;;;;4960809;28;20051;-69
2021/12/25 15:18:29;;;;;;;9.77;7.80;;;;;;;;;;4960229;28;20091;-69
2021/12/25 15:21:06;;;;;;;12.77;8.20;;;;;;;;;;4964742;28;20062;-69
2021/12/25 15:23:32;;;;;;;10.15;8.00;;;;;;;;;;4958850;28;20074;-71
2021/12/25 15:26:04;;;;;;;10.02;7.85;;;;;;;;;;4959860;28;20051;-71
2021/12/25 15:28:31;;;;;;;12.90;8.07;;;;;;;;;;4958347;28;20051;-71
2021/12/25 15:31:17;;;;;;;10.48;8.80;;;;;;;;;;4957336;28;20415;-70
2021/12/25 15:33:50;;;;;;;11.90;8.82;;;;;;;;;;4959893;28;20055;-70
2021/12/25 15:36:18;;;;;;;10.98;8.77;;;;;;;;;;4958465;28;20050;-70
2021/12/25 15:38:44;;;;;;;11.00;8.43;;;;;;;;;;4956320;28;20510;-69
2021/12/25 15:41:11;;;;;;;12.98;8.98;;;;;;;;;;4960664;28;20055;-70
2021/12/25 15:43:38;;;;;;;9.23;7.88;;;;;;;;;;4956188;28;20051;-69
2021/12/25 15:46:05;;;;;;;11.32;8.48;;;;;;;;;;4963545;28;20103;-70
2021/12/25 15:48:32;;;;;;;12.13;7.85;;;;;;;;;;4959913;28;20078;-70
2021/12/25 15:50:59;;;;;;;11.32;8.55;;;;;;;;;;4963990;28;20563;-68
2021/12/25 15:53:25;;;;;;;12.30;8.98;;;;;;;;;;4960197;28;20638;-69
2021/12/25 15:55:52;;;;;;;11.35;8.48;;;;;;;;;;4962762;28;20047;-70
2021/12/25 15:58:20;;;;;;;11.40;9.00;;;;;;;;;;4960961;28;20055;-70
2021/12/25 16:00:47;;;;;;;11.55;9.48;;;;;;;;;;4960409;28;20501;-69
2021/12/25 16:03:14;;;;;;;12.52;9.75;;;;;;;;;;4961569;28;20058;-69
2021/12/25 16:05:42;;;;;;;13.23;9.48;;;;;;;;;;4961470;28;20091;-69
2021/12/25 16:08:08;;;;;;;12.20;9.65;;;;;;;;;;4961232;28;20568;-70
2021/12/25 16:10:36;;;;;;;19.92;13.40;;;;;;;;;;4961030;28;20132;-69
2021/12/25 16:13:05;;;;;;;13.90;10.45;;;;;;;;;;4962661;28;20468;-70
2021/12/25 16:15:33;;;;;;;13.18;10.20;;;;;;;;;;4961201;28;20106;-69
2021/12/25 16:18:10;;;;;;;11.80;9.60;;;;;;;;;;4966820;28;20101;-70
2021/12/25 16:20:37;;;;;;;11.15;8.73;;;;;;;;;;4962325;28;20059;-70
2021/12/25 16:23:12;;;;;;;10.88;8.65;;;;;;;;;;4963667;28;20584;-70